Time;durP1;ratioP1;P1;durP2;ratioP2;P2;SDS_P1;SDS_P2;PMS_P1;PMS_P2;Temp;Humidity;BMP_temperature;BMP_pressure;BME280_temperature;BME280_humidity;BME280_pressure;Samples;Min_cycle;Max_cycle;Signal;HPM_P1;HPM_P2
2022/07/27 00:01:55;;;;;;;15.35;7.62;;;;;;;16.90;100.00;100189.33;1735825;82;21238;-44
2022/07/27 00:07:00;;;;;;;12.07;7.53;;;;;;;17.01;100.00;100187.52;1816192;79;22574;-44
2022/07/27 00:09:27;;;;;;;15.72;8.18;;;;;;;17.00;100.00;100184.53;1789378;80;20909;-43
2022/07/27 00:11:56;;;;;;;12.85;7.55;;;;;;;17.04;100.00;100188.67;1782295;80;20971;-43
2022/07/27 00:14:22;;;;;;;15.05;8.10;;;;;;;17.06;100.00;100185.55;1760439;81;21600;-43
2022/07/27 00:16:51;;;;;;;12.40;7.67;;;;;;;17.09;100.00;100188.02;1760544;81;20884;-43
2022/07/27 00:19:18;;;;;;;11.45;7.90;;;;;;;17.13;100.00;100197.39;1760560;81;21019;-42
2022/07/27 00:21:47;;;;;;;11.08;7.95;;;;;;;17.15;100.00;100190.76;1760505;81;20963;-43
2022/07/27 00:24:14;;;;;;;12.70;7.80;;;;;;;17.16;100.00;100190.69;1760464;81;21201;-43
2022/07/27 00:26:41;;;;;;;10.28;7.50;;;;;;;17.18;100.00;100191.46;1760481;81;20904;-43
2022/07/27 00:29:09;;;;;;;12.50;7.92;;;;;;;17.18;100.00;100191.94;1760535;81;20995;-43
2022/07/27 00:31:36;;;;;;;10.28;7.80;;;;;;;17.17;100.00;100188.91;1760568;81;20991;-43
2022/07/27 00:34:03;;;;;;;8.18;7.37;;;;;;;17.14;100.00;100186.45;1758757;81;20987;-43
2022/07/27 00:36:32;;;;;;;10.23;7.67;;;;;;;17.07;100.00;100179.40;1734857;81;21504;-43
2022/07/27 00:38:59;;;;;;;11.85;8.23;;;;;;;17.03;100.00;100179.14;1730461;83;21480;-43
2022/07/27 00:41:26;;;;;;;14.53;8.30;;;;;;;16.98;100.00;100185.03;1701395;83;20912;-44
2022/07/27 00:43:58;;;;;;;10.80;7.92;;;;;;;16.93;100.00;100182.19;1701738;83;20951;-43
2022/07/27 00:46:27;;;;;;;10.05;7.78;;;;;;;16.89;100.00;100181.97;1730406;83;20903;-43
2022/07/27 00:48:53;;;;;;;17.00;8.18;;;;;;;16.87;100.00;100185.56;1730227;83;21141;-43
2022/07/27 00:51:21;;;;;;;17.05;8.20;;;;;;;16.84;100.00;100181.35;1730173;82;20876;-43
2022/07/27 00:53:48;;;;;;;10.82;7.95;;;;;;;16.84;100.00;100180.05;1730194;83;20964;-43
2022/07/27 00:56:15;;;;;;;11.35;7.80;;;;;;;16.85;100.00;100183.04;1730282;83;20928;-43
2022/07/27 00:58:42;;;;;;;13.78;7.92;;;;;;;16.83;100.00;100179.66;1730329;83;20955;-43
2022/07/27 01:01:09;;;;;;;12.60;8.55;;;;;;;16.79;100.00;100182.87;1730283;83;21167;-43
2022/07/27 01:03:36;;;;;;;16.20;8.60;;;;;;;16.72;100.00;100181.93;1730049;83;21626;-43
2022/07/27 01:06:03;;;;;;;14.05;7.85;;;;;;;16.68;100.00;100183.01;1724151;82;20935;-43
2022/07/27 01:08:30;;;;;;;9.03;7.45;;;;;;;16.62;100.00;100181.53;1697394;83;20912;-43
2022/07/27 01:10:57;;;;;;;18.73;7.75;;;;;;;16.58;100.00;100178.23;1697409;83;21504;-42
2022/07/27 01:13:26;;;;;;;12.45;7.50;;;;;;;16.54;100.00;100185.80;1717619;83;21142;-43
2022/07/27 01:15:53;;;;;;;13.53;7.90;;;;;;;16.50;100.00;100187.74;1717473;82;20987;-43
2022/07/27 01:18:32;;;;;;;10.90;7.60;;;;;;;16.48;100.00;100184.80;1717161;83;20920;-43
2022/07/27 01:21:00;;;;;;;8.80;7.97;;;;;;;16.47;100.00;100183.97;1717057;83;21498;-43
2022/07/27 01:23:28;;;;;;;9.53;8.50;;;;;;;16.48;100.00;100188.27;1717323;83;20996;-43
2022/07/27 01:25:55;;;;;;;14.47;7.87;;;;;;;16.50;100.00;100185.13;1717013;83;21248;-43
2022/07/27 01:28:24;;;;;;;14.15;8.53;;;;;;;16.56;100.00;100195.75;1717125;83;21011;-43
2022/07/27 01:30:51;;;;;;;12.25;8.25;;;;;;;16.59;100.00;100191.69;1716998;82;20941;-43
2022/07/27 01:33:24;;;;;;;11.45;7.85;;;;;;;16.61;100.00;100184.62;1717130;83;20940;-43
2022/07/27 01:35:47;;;;;;;9.53;8.13;;;;;;;16.63;100.00;100188.44;1716610;83;21039;-43
2022/07/27 01:38:15;;;;;;;13.58;7.95;;;;;;;16.62;100.00;100188.92;1717171;83;21144;-43
2022/07/27 01:40:42;;;;;;;11.80;7.70;;;;;;;16.65;100.00;100194.44;1716843;82;21403;-43
2022/07/27 01:43:09;;;;;;;13.88;7.92;;;;;;;16.70;100.00;100191.61;1717256;83;21513;-43
2022/07/27 01:45:38;;;;;;;9.48;6.95;;;;;;;16.75;100.00;100193.54;1717033;83;20984;-43
2022/07/27 01:48:05;;;;;;;10.70;7.95;;;;;;;16.77;100.00;100193.00;1697140;83;21489;-43
2022/07/27 01:50:32;;;;;;;9.30;7.90;;;;;;;16.79;100.00;100197.69;1696565;82;21262;-43
2022/07/27 01:52:59;;;;;;;10.28;8.18;;;;;;;16.84;100.00;100202.26;1696709;83;21537;-43
2022/07/27 01:55:26;;;;;;;11.63;8.00;;;;;;;16.88;100.00;100193.34;1696817;83;20987;-43
2022/07/27 01:57:53;;;;;;;11.35;8.03;;;;;;;16.93;100.00;100190.52;1716953;83;20980;-43
2022/07/27 02:00:22;;;;;;;14.45;9.50;;;;;;;16.98;100.00;100187.65;1717050;83;20885;-44
2022/07/27 02:02:50;;;;;;;12.58;9.58;;;;;;;17.01;100.00;100184.46;1717086;83;21246;-43
2022/07/27 02:05:18;;;;;;;16.17;9.10;;;;;;;17.05;100.00;100178.60;1716824;82;20964;-43
2022/07/27 02:07:47;;;;;;;14.80;8.50;;;;;;;17.09;100.00;100177.55;1696757;83;20905;-43
2022/07/27 02:10:14;;;;;;;9.05;7.83;;;;;;;17.15;100.00;100181.61;1717043;83;20976;-42
2022/07/27 02:12:43;;;;;;;7.85;7.10;;;;;;;17.18;100.00;100175.77;1716919;83;21359;-43
2022/07/27 02:15:14;;;;;;;10.18;8.03;;;;;;;17.18;100.00;100181.00;1696526;83;21528;-43
2022/07/27 02:17:42;;;;;;;7.80;6.47;;;;;;;17.18;100.00;100179.69;1716846;83;20929;-42
2022/07/27 02:20:10;;;;;;;10.88;6.72;;;;;;;17.17;100.00;100179.31;1717109;82;20892;-44
2022/07/27 02:22:37;;;;;;;8.63;6.20;;;;;;;17.16;100.00;100181.54;1717297;82;20967;-43
2022/07/27 02:25:06;;;;;;;7.67;5.97;;;;;;;17.10;100.00;100176.63;1716874;83;20996;-43
2022/07/27 02:27:34;;;;;;;14.00;6.12;;;;;;;17.05;100.00;100176.84;1717109;83;21334;-44
2022/07/27 02:30:03;;;;;;;8.25;6.65;;;;;;;17.00;100.00;100181.91;1716976;83;20980;-43
2022/07/27 02:32:31;;;;;;;8.30;6.00;;;;;;;16.94;100.00;100173.91;1717370;83;21477;-43
2022/07/27 02:34:59;;;;;;;8.98;6.10;;;;;;;16.91;100.00;100181.42;1717012;83;20936;-43
2022/07/27 02:37:25;;;;;;;9.83;5.78;;;;;;;16.90;100.00;100192.80;1716988;83;20884;-43
2022/07/27 02:39:55;;;;;;;12.33;6.22;;;;;;;16.89;100.00;100196.78;1696852;83;20944;-43
2022/07/27 02:42:22;;;;;;;6.30;5.70;;;;;;;16.88;100.00;100189.42;1717084;83;20913;-43
2022/07/27 02:44:49;;;;;;;8.78;5.58;;;;;;;16.87;100.00;100198.19;1716945;83;21532;-43
2022/07/27 02:47:16;;;;;;;6.78;5.87;;;;;;;16.86;100.00;100195.19;1717014;83;20980;-43
2022/07/27 02:49:44;;;;;;;11.68;6.72;;;;;;;16.85;100.00;100190.88;1716956;83;20999;-43
2022/07/27 02:52:10;;;;;;;10.90;6.53;;;;;;;16.87;100.00;100192.95;1717184;83;22180;-43
2022/07/27 02:54:39;;;;;;;7.10;6.50;;;;;;;16.87;100.00;100191.66;1696816;83;20976;-44
2022/07/27 02:57:07;;;;;;;7.10;6.40;;;;;;;16.92;100.00;100195.33;1717009;83;20968;-43
2022/07/27 02:59:34;;;;;;;11.60;7.15;;;;;;;16.98;100.00;100192.47;1696689;83;21470;-43
2022/07/27 03:02:02;;;;;;;16.82;7.55;;;;;;;17.04;100.00;100194.77;1717097;83;20999;-43
2022/07/27 03:04:29;;;;;;;16.10;7.95;;;;;;;17.13;100.00;100196.53;1717024;83;21244;-43
2022/07/27 03:06:56;;;;;;;11.63;7.45;;;;;;;17.22;100.00;100200.01;1727094;82;20902;-43
2022/07/27 03:09:23;;;;;;;10.30;7.35;;;;;;;17.31;100.00;100197.39;1734987;82;20969;-43
2022/07/27 03:11:50;;;;;;;10.20;7.03;;;;;;;17.40;100.00;100196.91;1734877;82;20996;-43
2022/07/27 03:14:17;;;;;;;12.40;7.17;;;;;;;17.51;100.00;100200.29;1734969;82;20968;-43
2022/07/27 03:16:45;;;;;;;14.98;7.20;;;;;;;17.60;100.00;100196.36;1734924;81;21251;-44
2022/07/27 03:19:13;;;;;;;8.88;7.35;;;;;;;17.67;100.00;100197.72;1735128;82;20831;-43
2022/07/27 03:21:41;;;;;;;8.13;6.95;;;;;;;17.73;100.00;100200.00;1734968;82;20940;-43
2022/07/27 03:24:08;;;;;;;10.95;6.65;;;;;;;17.76;100.00;100199.02;1734817;82;20913;-44
2022/07/27 03:26:36;;;;;;;7.58;6.45;;;;;;;17.81;100.00;100197.85;1734793;82;20992;-43
2022/07/27 03:29:03;;;;;;;6.17;5.75;;;;;;;17.86;100.00;100194.14;1734899;82;21252;-43
2022/07/27 03:31:31;;;;;;;15.10;6.25;;;;;;;17.91;100.00;100199.97;1734893;82;20976;-43
2022/07/27 03:33:58;;;;;;;12.88;6.10;;;;;;;17.96;100.00;100203.18;1734908;81;20991;-44
2022/07/27 03:36:26;;;;;;;7.40;5.97;;;;;;;18.02;100.00;100197.64;1693020;83;20914;-44
2022/07/27 03:38:53;;;;;;;6.58;5.75;;;;;;;18.07;100.00;100194.78;1734881;82;20965;-44
2022/07/27 03:41:22;;;;;;;7.28;5.78;;;;;;;18.13;100.00;100196.23;1734813;82;21234;-44
2022/07/27 03:43:48;;;;;;;6.30;5.72;;;;;;;18.17;100.00;100200.38;1734765;82;21419;-43
2022/07/27 03:46:15;;;;;;;7.78;5.62;;;;;;;18.24;100.00;100205.64;1734887;82;21016;-44
2022/07/27 03:48:42;;;;;;;8.73;5.65;;;;;;;18.31;100.00;100210.92;1734904;82;20909;-44
2022/07/27 03:51:10;;;;;;;7.17;5.67;;;;;;;18.38;100.00;100207.05;1734995;82;21039;-44
2022/07/27 03:53:37;;;;;;;9.23;5.37;;;;;;;18.48;100.00;100213.09;1734797;82;21164;-44
2022/07/27 03:56:05;;;;;;;5.67;5.15;;;;;;;18.58;100.00;100209.05;1734780;82;20976;-43
2022/07/27 03:58:32;;;;;;;8.43;5.67;;;;;;;18.72;100.00;100206.95;1734921;82;20937;-43
2022/07/27 04:00:59;;;;;;;9.63;4.92;;;;;;;18.85;100.00;100210.17;1734831;82;20937;-43
2022/07/27 04:03:26;;;;;;;6.42;4.45;;;;;;;19.06;100.00;100208.11;1734843;82;21015;-43
2022/07/27 04:05:54;;;;;;;4.50;4.10;;;;;;;19.35;100.00;100212.97;1734790;82;21267;-43
2022/07/27 04:08:21;;;;;;;7.95;3.95;;;;;;;19.62;100.00;100209.63;1732767;82;20980;-44
2022/07/27 04:10:49;;;;;;;6.87;3.80;;;;;;;19.90;100.00;100210.57;1732702;82;20862;-44
2022/07/27 04:13:20;;;;;;;6.03;3.90;;;;;;;20.21;100.00;100213.97;1732740;82;20895;-44
2022/07/27 04:15:47;;;;;;;5.05;4.62;;;;;;;20.57;100.00;100211.70;1732780;82;20961;-43
2022/07/27 04:18:14;;;;;;;7.72;4.37;;;;;;;20.89;100.00;100212.76;1732768;82;21141;-43
2022/07/27 04:20:42;;;;;;;12.47;4.30;;;;;;;21.23;100.00;100206.55;1731969;82;20857;-44
2022/07/27 04:23:08;;;;;;;6.25;4.53;;;;;;;21.51;100.00;100207.30;1732805;82;20925;-44
2022/07/27 04:25:36;;;;;;;5.67;3.72;;;;;;;21.77;100.00;100203.87;1732761;82;20929;-44
2022/07/27 04:28:04;;;;;;;7.03;4.90;;;;;;;21.96;100.00;100208.19;1732751;82;21016;-44
2022/07/27 04:30:32;;;;;;;12.47;4.30;;;;;;;22.23;100.00;100208.98;1732943;82;21058;-44
2022/07/27 04:32:59;;;;;;;5.10;4.60;;;;;;;22.33;100.00;100213.95;1732660;82;20941;-44
2022/07/27 04:35:26;;;;;;;9.25;5.03;;;;;;;22.37;100.00;100211.48;1732670;82;20985;-44
2022/07/27 04:37:53;;;;;;;9.73;5.58;;;;;;;22.50;100.00;100222.48;1732825;82;20964;-44
2022/07/27 04:40:20;;;;;;;13.30;5.58;;;;;;;22.51;98.66;100227.66;1732984;82;21443;-44
2022/07/27 04:42:47;;;;;;;10.48;6.62;;;;;;;22.55;99.77;100222.98;1732801;82;21246;-44
2022/07/27 04:45:15;;;;;;;7.53;5.80;;;;;;;22.67;99.52;100227.84;1732660;82;20972;-43
2022/07/27 04:47:42;;;;;;;10.65;5.97;;;;;;;22.80;97.80;100237.02;1732891;82;21407;-44
2022/07/27 04:50:09;;;;;;;9.78;5.55;;;;;;;22.94;97.24;100232.89;1732589;82;20894;-44
2022/07/27 04:52:38;;;;;;;14.45;5.80;;;;;;;23.05;93.77;100240.47;1732863;82;20909;-44
2022/07/27 04:55:07;;;;;;;8.08;5.53;;;;;;;23.18;93.75;100244.35;1732972;82;21210;-44
2022/07/27 04:57:34;;;;;;;9.15;5.25;;;;;;;23.40;93.90;100243.62;1708725;82;20936;-44
2022/07/27 05:00:03;;;;;;;6.75;5.37;;;;;;;23.67;93.31;100243.28;1732862;82;20965;-44
2022/07/27 05:02:30;;;;;;;9.15;5.60;;;;;;;23.90;90.00;100245.12;1732915;82;20945;-43
2022/07/27 05:04:59;;;;;;;7.87;4.67;;;;;;;24.06;89.35;100244.28;1732980;82;21211;-44
2022/07/27 05:07:27;;;;;;;7.65;6.28;;;;;;;24.30;87.87;100247.77;1724255;82;21172;-44
2022/07/27 05:09:54;;;;;;;8.10;5.62;;;;;;;24.50;86.58;100256.73;1717032;83;20971;-44
2022/07/27 05:12:21;;;;;;;10.25;5.25;;;;;;;24.63;85.11;100256.58;1717292;83;20892;-44
2022/07/27 05:14:49;;;;;;;8.50;5.15;;;;;;;24.70;82.63;100263.05;1717034;83;20948;-43
2022/07/27 05:17:16;;;;;;;11.28;4.97;;;;;;;24.74;80.33;100259.67;1717060;83;20957;-44
2022/07/27 05:19:45;;;;;;;8.08;5.20;;;;;;;24.75;80.87;100261.38;1717085;81;21482;-44
2022/07/27 05:22:12;;;;;;;4.97;4.58;;;;;;;24.66;78.87;100268.23;1696856;83;20997;-44
2022/07/27 05:24:39;;;;;;;9.05;4.92;;;;;;;24.62;79.25;100268.13;1717098;83;20896;-45
2022/07/27 05:27:07;;;;;;;11.25;4.92;;;;;;;24.71;80.55;100266.05;1717259;83;21000;-44
2022/07/27 05:29:34;;;;;;;9.65;5.25;;;;;;;24.94;80.64;100272.15;1696983;83;21011;-43
2022/07/27 05:32:01;;;;;;;9.30;5.12;;;;;;;25.00;79.23;100269.45;1696450;83;21107;-44
2022/07/27 05:34:28;;;;;;;8.88;4.95;;;;;;;25.11;78.36;100273.86;1717044;83;20971;-44
2022/07/27 05:36:55;;;;;;;9.05;4.75;;;;;;;25.14;78.87;100272.78;1717114;83;21451;-44
2022/07/27 05:39:22;;;;;;;7.00;4.70;;;;;;;25.10;78.36;100278.80;1717071;83;20952;-43
2022/07/27 05:41:49;;;;;;;8.68;5.00;;;;;;;25.19;78.66;100284.68;1717034;83;20979;-44
2022/07/27 05:44:16;;;;;;;5.25;4.58;;;;;;;25.43;78.79;100278.77;1717096;82;22077;-44
2022/07/27 05:46:43;;;;;;;6.72;5.03;;;;;;;25.60;77.39;100281.34;1716873;83;20849;-44
2022/07/27 05:49:12;;;;;;;7.55;4.67;;;;;;;25.69;74.01;100284.55;1717101;83;20977;-44
2022/07/27 05:51:39;;;;;;;9.03;4.90;;;;;;;25.59;73.98;100288.47;1717028;83;20901;-43
2022/07/27 05:54:06;;;;;;;5.03;4.58;;;;;;;25.56;74.57;100281.25;1717084;83;20948;-44
2022/07/27 05:56:34;;;;;;;6.85;4.42;;;;;;;25.63;73.95;100285.05;1717200;83;21317;-44
2022/07/27 05:59:02;;;;;;;10.65;4.80;;;;;;;25.61;74.83;100280.36;1716931;83;21030;-44
2022/07/27 06:01:29;;;;;;;5.05;4.55;;;;;;;25.64;74.39;100292.02;1717122;82;20885;-44
2022/07/27 06:03:56;;;;;;;7.25;4.70;;;;;;;25.67;72.60;100287.81;1717013;83;20908;-44
2022/07/27 06:09:08;;;;;;;8.20;4.85;;;;;;;25.36;75.64;100289.88;1717108;82;21237;-44
2022/07/27 06:11:36;;;;;;;9.28;4.83;;;;;;;25.59;76.46;100295.55;1717009;83;21024;-44
2022/07/27 06:14:03;;;;;;;8.70;4.33;;;;;;;25.70;75.06;100292.85;1717072;83;20996;-44
2022/07/27 06:16:30;;;;;;;6.60;5.20;;;;;;;25.81;73.77;100297.23;1717035;83;20961;-44
2022/07/27 06:18:57;;;;;;;6.85;4.67;;;;;;;25.77;74.77;100299.80;1717058;83;21988;-44
2022/07/27 06:21:26;;;;;;;5.22;4.70;;;;;;;25.78;74.19;100297.00;1717067;83;22148;-44
2022/07/27 06:23:54;;;;;;;5.92;4.40;;;;;;;25.85;73.98;100300.44;1716949;83;20980;-44
2022/07/27 06:26:21;;;;;;;10.88;4.62;;;;;;;25.83;72.60;100303.24;1717050;83;21403;-44
2022/07/27 06:28:50;;;;;;;7.95;4.83;;;;;;;25.87;73.24;100306.45;1716994;83;20940;-43
2022/07/27 06:31:17;;;;;;;7.78;4.55;;;;;;;26.00;72.26;100312.86;1717395;83;20996;-43
2022/07/27 06:33:44;;;;;;;7.05;4.62;;;;;;;26.13;72.25;100299.38;1716959;83;21007;-44
2022/07/27 06:36:11;;;;;;;4.78;4.35;;;;;;;26.36;72.22;100304.87;1716978;83;20976;-44
2022/07/27 06:38:38;;;;;;;11.33;5.00;;;;;;;26.52;71.91;100308.83;1717050;83;20937;-43
2022/07/27 06:41:05;;;;;;;10.32;4.95;;;;;;;26.63;72.57;100302.07;1717042;82;20983;-44
2022/07/27 06:43:33;;;;;;;9.58;4.83;;;;;;;26.76;71.04;100306.30;1717188;83;20889;-44
2022/07/27 06:46:02;;;;;;;5.87;5.12;;;;;;;26.90;71.04;100309.06;1716929;83;21143;-44
2022/07/27 06:48:29;;;;;;;6.35;4.83;;;;;;;26.85;69.77;100311.30;1717011;82;20980;-44
2022/07/27 06:50:56;;;;;;;6.25;4.92;;;;;;;26.65;70.44;100301.47;1716997;83;20956;-44
2022/07/27 06:53:23;;;;;;;8.40;4.80;;;;;;;26.56;70.06;100307.58;1717140;83;22160;-43
2022/07/27 06:55:51;;;;;;;6.58;4.83;;;;;;;26.36;71.75;100314.16;1717098;83;21016;-44
2022/07/27 06:58:18;;;;;;;6.97;5.20;;;;;;;26.29;72.61;100306.39;1716941;82;21141;-44
2022/07/27 07:00:46;;;;;;;10.68;5.67;;;;;;;26.24;71.58;100306.78;1716886;81;20952;-43
2022/07/27 07:03:13;;;;;;;9.30;5.30;;;;;;;26.19;71.99;100310.33;1717067;83;20901;-44
2022/07/27 07:05:45;;;;;;;4.55;4.17;;;;;;;26.21;72.37;100309.70;1716932;82;20952;-44
2022/07/27 07:08:13;;;;;;;5.40;4.30;;;;;;;26.33;70.77;100305.65;1718330;82;20983;-43
2022/07/27 07:10:42;;;;;;;4.80;4.42;;;;;;;26.30;69.99;100302.77;1719387;83;21112;-45
2022/07/27 07:13:10;;;;;;;7.37;4.55;;;;;;;26.36;69.98;100311.50;1719459;83;20987;-43
2022/07/27 07:15:38;;;;;;;6.85;5.45;;;;;;;26.42;69.18;100310.63;1719549;83;21011;-44
2022/07/27 07:18:07;;;;;;;5.50;4.78;;;;;;;26.53;69.50;100308.71;1719492;83;20921;-44
2022/07/27 07:20:35;;;;;;;7.67;5.42;;;;;;;26.46;70.14;100312.03;1719709;83;20975;-44
2022/07/27 07:23:04;;;;;;;5.87;5.05;;;;;;;26.50;70.56;100316.09;1719544;83;21277;-44
2022/07/27 07:25:32;;;;;;;6.00;4.55;;;;;;;26.57;73.57;100309.26;1693020;83;20952;-44
2022/07/27 07:28:00;;;;;;;4.40;3.98;;;;;;;26.76;72.64;100310.28;1719391;83;21542;-44
2022/07/27 07:30:27;;;;;;;6.65;5.10;;;;;;;26.78;65.60;100310.98;1719729;83;21474;-44
2022/07/27 07:32:54;;;;;;;7.42;5.30;;;;;;;26.77;68.23;100317.27;1719578;83;21010;-44
2022/07/27 07:35:22;;;;;;;8.25;5.03;;;;;;;26.67;70.18;100314.59;1719617;83;21335;-43
2022/07/27 07:37:49;;;;;;;12.68;5.22;;;;;;;26.72;70.36;100312.36;1719511;83;20984;-44
2022/07/27 07:40:18;;;;;;;6.97;4.87;;;;;;;26.94;70.45;100309.98;1693134;83;20873;-44
2022/07/27 07:42:51;;;;;;;6.80;4.72;;;;;;;27.19;70.75;100311.73;1724324;82;20940;-43
2022/07/27 07:45:18;;;;;;;13.22;5.03;;;;;;;27.53;70.25;100311.30;1719357;83;21518;-44
2022/07/27 07:47:45;;;;;;;8.43;4.80;;;;;;;27.83;69.04;100315.23;1732195;82;21918;-44
2022/07/27 07:50:12;;;;;;;14.85;5.10;;;;;;;27.87;67.92;100311.77;1721435;82;20944;-44
2022/07/27 07:52:41;;;;;;;7.87;5.00;;;;;;;27.71;66.93;100309.72;1719255;83;21435;-44
2022/07/27 07:55:08;;;;;;;8.25;4.78;;;;;;;27.82;68.06;100309.06;1719202;83;20988;-44
2022/07/27 07:57:35;;;;;;;8.23;4.72;;;;;;;28.04;67.55;100304.38;1719535;83;20983;-44
2022/07/27 08:00:05;;;;;;;6.58;5.03;;;;;;;28.06;64.66;100309.05;1727730;82;21097;-44
2022/07/27 08:02:46;;;;;;;10.55;6.12;;;;;;;28.28;66.07;100311.50;1726906;82;20938;-45
2022/07/27 08:05:14;;;;;;;6.35;5.42;;;;;;;28.46;65.57;100316.38;1718788;83;20975;-44
2022/07/27 08:07:43;;;;;;;6.15;5.30;;;;;;;28.49;64.07;100317.92;1727642;81;20980;-45
2022/07/27 08:10:11;;;;;;;7.25;4.90;;;;;;;28.62;64.53;100317.56;1737527;82;21541;-44
2022/07/27 08:12:40;;;;;;;5.03;3.83;;;;;;;28.81;64.15;100320.12;1708806;82;21354;-44
2022/07/27 08:15:08;;;;;;;4.17;3.67;;;;;;;28.94;60.89;100319.75;1722246;82;21526;-44
2022/07/27 08:17:36;;;;;;;8.70;5.15;;;;;;;28.99;62.32;100319.79;1745233;82;21581;-45
2022/07/27 08:20:05;;;;;;;11.33;5.25;;;;;;;28.91;62.02;100321.36;1738593;82;21052;-45
2022/07/27 08:22:32;;;;;;;7.50;5.30;;;;;;;28.65;63.36;100326.58;1718718;82;21526;-45
2022/07/27 08:24:59;;;;;;;12.60;5.12;;;;;;;28.52;64.27;100322.43;1735679;82;21080;-45
2022/07/27 08:27:28;;;;;;;8.40;5.50;;;;;;;28.47;63.66;100322.55;1746213;82;20849;-45
2022/07/27 08:29:56;;;;;;;7.50;5.37;;;;;;;28.42;62.92;100321.66;1688489;84;21082;-44
2022/07/27 08:32:23;;;;;;;9.48;5.65;;;;;;;28.47;64.21;100319.89;1682549;84;21070;-45
2022/07/27 08:34:51;;;;;;;9.08;5.65;;;;;;;28.63;63.73;100321.39;1700434;84;21074;-45
2022/07/27 08:37:17;;;;;;;7.42;5.80;;;;;;;28.80;63.99;100317.12;1686193;84;21633;-45
2022/07/27 08:39:44;;;;;;;6.55;5.75;;;;;;;28.83;61.63;100319.96;1681401;84;20952;-45
2022/07/27 08:42:12;;;;;;;11.88;6.20;;;;;;;28.65;64.06;100323.41;1682688;84;21023;-44
2022/07/27 08:44:40;;;;;;;6.03;5.42;;;;;;;28.62;62.13;100325.03;1674976;84;21549;-44
2022/07/27 08:47:10;;;;;;;6.62;5.87;;;;;;;28.55;62.32;100321.30;1675933;84;21000;-45
2022/07/27 08:49:40;;;;;;;6.65;5.62;;;;;;;28.45;63.75;100319.20;1693681;84;21915;-45
2022/07/27 08:52:11;;;;;;;7.03;5.40;;;;;;;28.34;65.18;100317.07;1673227;85;20964;-45
2022/07/27 08:54:40;;;;;;;5.92;5.03;;;;;;;28.42;64.67;100319.00;1684353;84;21003;-45
2022/07/27 08:57:08;;;;;;;10.18;4.87;;;;;;;28.30;64.50;100318.87;1672748;85;21047;-45
2022/07/27 08:59:35;;;;;;;6.45;5.20;;;;;;;28.07;67.93;100322.69;1673825;84;21030;-45
2022/07/27 09:02:09;;;;;;;10.72;4.92;;;;;;;27.87;65.26;100317.09;1685252;84;21447;-44
2022/07/27 09:04:39;;;;;;;9.55;5.35;;;;;;;27.72;66.90;100318.05;1700766;84;20960;-45
2022/07/27 09:07:07;;;;;;;5.42;4.90;;;;;;;28.01;68.98;100315.78;1701578;84;20893;-44
2022/07/27 09:09:45;;;;;;;5.67;5.17;;;;;;;28.54;68.02;100315.64;1685894;83;21019;-45
2022/07/27 09:12:12;;;;;;;5.50;4.92;;;;;;;29.13;65.43;100319.23;1657619;85;21475;-45
2022/07/27 09:14:42;;;;;;;5.15;4.62;;;;;;;29.63;63.22;100309.83;1656473;86;21280;-45
2022/07/27 09:17:23;;;;;;;4.72;4.30;;;;;;;30.02;59.75;100314.39;1657624;85;21570;-45
2022/07/27 09:19:58;;;;;;;7.90;4.87;;;;;;;29.85;59.94;100315.63;1647093;86;21634;-45
2022/07/27 09:22:45;;;;;;;11.30;4.85;;;;;;;29.13;61.68;100322.41;1656647;85;21526;-44
2022/07/27 09:25:14;;;;;;;4.78;4.35;;;;;;;28.65;64.29;100322.58;1682597;85;21019;-44
2022/07/27 09:27:44;;;;;;;6.37;4.37;;;;;;;28.50;65.52;100317.75;1669575;85;21221;-44
2022/07/27 09:30:17;;;;;;;9.08;5.12;;;;;;;28.49;65.36;100317.41;1675393;85;20957;-44
2022/07/27 09:32:58;;;;;;;4.87;4.33;;;;;;;28.23;64.39;100312.78;1660431;85;20973;-44
2022/07/27 09:35:32;;;;;;;5.12;4.72;;;;;;;28.23;66.07;100311.45;1658076;85;21040;-44
2022/07/27 09:38:23;;;;;;;5.95;4.40;;;;;;;28.58;65.00;100313.02;1673964;85;21001;-44
2022/07/27 09:41:00;;;;;;;5.50;4.55;;;;;;;28.81;65.90;100316.14;1657541;85;21893;-44
2022/07/27 09:43:29;;;;;;;7.22;4.62;;;;;;;28.92;65.55;100312.38;1656301;86;20973;-44
2022/07/27 09:45:57;;;;;;;4.45;4.17;;;;;;;28.82;64.23;100320.47;1674077;85;21487;-44
2022/07/27 09:48:25;;;;;;;4.37;4.08;;;;;;;28.79;64.85;100315.93;1657966;85;21520;-44
2022/07/27 09:51:01;;;;;;;8.05;4.37;;;;;;;29.14;66.17;100318.75;1684045;85;20933;-44
2022/07/27 09:53:33;;;;;;;8.13;4.60;;;;;;;29.68;63.39;100315.52;1684198;85;22161;-45
2022/07/27 09:56:05;;;;;;;6.83;4.08;;;;;;;29.93;61.67;100318.81;1680153;85;21004;-44
2022/07/27 09:58:49;;;;;;;7.40;5.20;;;;;;;29.79;59.73;100322.91;1684021;85;20968;-46
2022/07/27 10:01:20;;;;;;;4.90;4.17;;;;;;;29.72;59.81;100320.53;1684031;85;21004;-45
2022/07/27 10:03:48;;;;;;;10.03;4.17;;;;;;;29.72;58.89;100320.53;1679577;85;22252;-45
2022/07/27 10:06:15;;;;;;;5.05;4.03;;;;;;;29.76;61.41;100322.73;1676396;85;21202;-45
2022/07/27 10:08:45;;;;;;;5.25;4.20;;;;;;;29.89;62.16;100312.98;1659626;85;20889;-46
2022/07/27 10:11:13;;;;;;;5.95;3.75;;;;;;;30.01;60.27;100322.91;1665041;86;21019;-46
2022/07/27 10:13:40;;;;;;;4.00;3.70;;;;;;;29.81;61.02;100320.43;1665083;86;21421;-45
2022/07/27 10:16:16;;;;;;;4.30;3.90;;;;;;;29.80;61.26;100328.58;1666440;84;21474;-45
2022/07/27 10:19:06;;;;;;;4.42;4.00;;;;;;;29.73;62.67;100328.87;1690267;84;21244;-45
2022/07/27 10:21:36;;;;;;;9.28;3.75;;;;;;;29.72;60.78;100323.20;1693169;84;21026;-44
2022/07/27 10:24:07;;;;;;;9.83;4.20;;;;;;;29.46;61.81;100330.21;1692011;84;21015;-46
2022/07/27 10:26:37;;;;;;;4.50;4.00;;;;;;;29.14;62.82;100331.56;1689711;84;21719;-44
2022/07/27 10:29:17;;;;;;;5.25;3.70;;;;;;;28.89;63.35;100330.00;1665338;86;20992;-45
2022/07/27 10:31:57;;;;;;;4.90;3.75;;;;;;;28.80;64.01;100329.59;1691476;84;21320;-45
2022/07/27 10:34:37;;;;;;;5.12;3.70;;;;;;;28.96;64.91;100319.11;1666583;84;20901;-46
2022/07/27 10:37:24;;;;;;;6.05;3.90;;;;;;;29.35;62.84;100324.59;1665152;84;20980;-45
2022/07/27 10:42:43;;;;;;;8.03;4.03;;;;;;;30.08;61.35;100320.45;1665167;86;20945;-45
2022/07/27 10:45:12;;;;;;;4.90;3.87;;;;;;;30.33;58.43;100316.55;1665489;86;21105;-45
2022/07/27 10:47:46;;;;;;;5.22;4.20;;;;;;;30.32;59.83;100325.55;1667448;84;21039;-45
2022/07/27 10:50:19;;;;;;;6.55;3.67;;;;;;;30.03;59.89;100334.25;1693167;84;21023;-46
2022/07/27 10:53:02;;;;;;;4.40;4.00;;;;;;;29.39;61.24;100343.77;1692944;84;21526;-45
2022/07/27 10:55:35;;;;;;;4.45;4.10;;;;;;;28.70;63.17;100334.94;1693137;84;20917;-44
2022/07/27 10:58:13;;;;;;;5.12;3.92;;;;;;;28.28;64.54;100330.97;1679136;84;21207;-45
2022/07/27 11:00:55;;;;;;;8.65;3.12;;;;;;;28.18;65.97;100326.20;1666191;84;20964;-44
2022/07/27 11:03:33;;;;;;;5.67;3.90;;;;;;;28.35;66.78;100326.73;1677511;84;20896;-44
2022/07/27 11:06:20;;;;;;;5.47;3.80;;;;;;;28.75;67.28;100329.17;1654450;86;21525;-44
2022/07/27 11:08:48;;;;;;;6.50;3.47;;;;;;;29.13;65.50;100323.23;1714176;82;20930;-44
2022/07/27 11:11:18;;;;;;;4.80;3.67;;;;;;;29.43;64.70;100323.86;1704621;83;21037;-45
2022/07/27 11:13:46;;;;;;;3.90;3.60;;;;;;;29.63;62.65;100319.64;1702404;83;21001;-44
2022/07/27 11:16:15;;;;;;;3.70;3.50;;;;;;;29.64;62.47;100319.98;1689204;83;21017;-44
2022/07/27 11:18:43;;;;;;;5.55;3.55;;;;;;;29.70;62.73;100314.05;1688185;83;20958;-44
2022/07/27 11:21:29;;;;;;;7.53;3.50;;;;;;;29.83;62.01;100314.44;1687465;85;21116;-44
2022/07/27 11:24:02;;;;;;;5.92;3.70;;;;;;;30.14;62.46;100314.95;1690736;83;21277;-44
2022/07/27 11:26:32;;;;;;;5.80;3.52;;;;;;;30.43;60.77;100309.71;1673042;85;20969;-44
2022/07/27 11:28:59;;;;;;;4.10;3.70;;;;;;;30.33;59.82;100313.36;1690278;83;21484;-44
2022/07/27 11:31:26;;;;;;;4.22;3.92;;;;;;;30.40;57.91;100310.38;1687510;85;20962;-44
2022/07/27 11:33:58;;;;;;;4.20;3.70;;;;;;;30.66;60.20;100316.66;1687484;83;20871;-44
2022/07/27 11:36:49;;;;;;;4.97;3.70;;;;;;;30.96;57.39;100317.88;1687555;83;21308;-45